Home > Products > Valid Products > SSM

000
SMZS01 NSTU 040554
SSMPPG
AAXX 04064
91765 32566 81120 10252 20202 30117 40120 52008 888// 333 56299
70000 555 90406=





000
SMZS01 NSTU 032355
SSMPPG
AAXX 04004
91765 12569 81218 10262 20205 30120 40124 57012 69954 8547/ 333
20237 5639/ 58002 70005 555 90400=




000
SMZS01 NSTU 031752
SSMPPG
AAXX 03184
91765 32569 81215 10254 20198 30119 40122 52002 8587/ 333 56399
70066 555 90318=




000
SMZS01 NSTU 031154
SSMPPG
AAXX 03124
91765 31466 81121 10257 20193 30130 40134 57002 70282 8587/ 333
10257 56299 58015 70074 555 90312=




000
SMZS01 NSTU 031154
SSMPPG
AAXX 03124
91765 31466 81121 10257 20193 30130 40134 57002 70282 8587/ 333
10257 56299 58015 70074 555 90312=




000
SMZS01 NSTU 030601
SSMPPG
AAXX 03064
91765 11464 81218 10249 20194 30122 40125 53014 69951 78082 888//
333 56399 70221 555 90306=




000
SMZS01 NSTU 030601
SSMPPG
AAXX 03064
91765 11464 81218 10249 20194 30122 40125 53014 69951 78082 888//
333 56399 70221 555 90306=




000
SMZS01 NSTU 022357
SSMPPG
AAXX 03004
91765 11262 81519 10245 20207 30119 40122 58015 60224 78082 888//
333 20229 56399 58010 70216 555 90300=




000
SMZS01 NSTU 022357
SSMPPG
AAXX 03004
91765 11262 81519 10245 20207 30119 40122 58015 60224 78082 888//
333 20229 56399 58010 70216 555 90300=




000
SMZS01 NSTU 021800
SSMPPG
AAXX 02184
91765 11266 81317 10245 20222 30110 40113 52005 69981 78082 8682/
333 56399 70157 555 90218=





000
SMZS01 NSTU 021800
SSMPPG
AAXX 02184
91765 11266 81317 10245 20222 30110 40113 52005 69981 78082 8682/
333 56399 70157 555 90218=





000
SMZS01 NSTU 021219
SSMPPG
91765 11366 81021 10242 20228 30115 40119 55000 60151
72582 8682/ 333 10292 56299 58000 70155 555 90212=




000
SMZS01 NSTU 021219
SSMPPG
91765 11366 81021 10242 20228 30115 40119 55000 60151
72582 8682/ 333 10292 56299 58000 70155 555 90212=





000
SMZS01 NSTU 021219
SSMPPG
91765 11366 81021 10242 20228 30115 40119 55000 60151
72582 8682/ 333 10292 56299 58000 70155 555 90212=





000
SMZS01 NSTU 021219
SSMPPG
91765 11366 81021 10242 20228 30115 40119 55000 60151
72582 8682/ 333 10292 56299 58000 70155 555 90212=




000
SMZS01 NSTU 021219
SSMPPG
91765 11366 81021 10242 20228 30115 40119 55000 60151
72582 8682/ 333 10292 56299 58000 70155 555 90212=





000
SMZS01 NSTU 021219
SSMPPG
91765 11366 81021 10242 20228 30115 40119 55000 60151
72582 8682/ 333 10292 56299 58000 70155 555 90212=




000
SMZS01 NSTU 021219
SSMPPG
91765 11366 81021 10242 20228 30115 40119 55000 60151
72582 8682/ 333 10292 56299 58000 70155 555 90212=




000
SMZS01 NSTU 021219
SSMPPG
91765 11366 81021 10242 20228 30115 40119 55000 60151
72582 8682/ 333 10292 56299 58000 70155 555 90212=


/=




000
SMZS01 NSTU 021219
SSMPPG
91765 11366 81021 10242 20228 30115 40119 55000 60151
72582 8682/ 333 10292 56299 58000 70155 555 90212=


/=





000
SMZS01 NSTU 021219
SSMPPG
91765 11366 81021 10242 20228 30115 40119 55000 60151
72582 8682/ 333 10292 56299 58000 70155 555 90212=


/=




000
SMZS01 NSTU 021219
SSMPPG
91765 11366 81021 10242 20228 30115 40119 55000 60151
72582 8682/ 333 10292 56299 58000 70155 555 90212=


/=





000
SMZS01 NSTU 021219
SSMPPG
91765 11366 81021 10242 20228 30115 40119 55000 60151
72582 8682/ 333 10292 56299 58000 70155 555 90212=





000
SMZS01 NSTU 020614
SSMPPG
AAXX 02064
91765 32466 81314 10261 20225 30103 40107 53010 8617/ 333 56229
70008 555 90206=





000
SMZS01 NSTU 020614
SSMPPG
AAXX 02064
91765 32466 81314 10261 20225 30103 40107 53010 8617/ 333 56229
70008 555 90206=





000
SMZS01 NSTU 012353
SSMPPG
AAXX 02004
91765 11569 21014 10292 20228 30108 40112 57022 60014 70281 81101
333 20248 562/9 58000 70010 555 90200=




000
SMZS01 NSTU 012353
SSMPPG
AAXX 02004
91765 11569 21014 10292 20228 30108 40112 57022 60014 70281 81101
333 20248 562/9 58000 70010 555 90200=




000
SMZS01 NSTU 011753
SSMPPG
AAXX 01184
91765 11569 81416 10258 20224 30107 40110 52007 69951 70282 8587/
333 56399 70013 555 90118=




000
SMZS01 NSTU 011156
SSMPPG
AAXX 01124
91765 11466 81218 10261 20227 30115 40119 56010 69901 70282 8587/
333 10264 56399 58004 70010 555 90112=




000
SMZS01 NSTU 011156
SSMPPG
AAXX 01124
91765 11466 81218 10261 20227 30115 40119 56010 69901 70282 8587/
333 10264 56399 58004 70010 555 90112=




    US Dept of Commerce
    National Oceanic and Atmospheric Administration
    National Weather Service
    1325 East West Highway
    Silver Spring, MD 20910
    Page Author: NWS Internet Services Team
Disclaimer
Information Quality
Credits
Glossary
Privacy Policy
Freedom of Information Act (FOIA)
About Us
Career Opportunities